Time;durP1;ratioP1;P1;durP2;ratioP2;P2;SDS_P1;SDS_P2;PMS_P1;PMS_P2;Temp;Humidity;BMP_temperature;BMP_pressure;BME280_temperature;BME280_humidity;BME280_pressure;Samples;Min_cycle;Max_cycle;Signal;HPM_P1;HPM_P2
2023/05/06 00:01:38;;;;;;;5.55;1.70;;;2.50;70.30;;;;;;5095104;28;20031;-80
2023/05/06 00:04:04;;;;;;;2.50;1.75;;;2.40;71.00;;;;;;5094854;28;20021;-81
2023/05/06 00:06:31;;;;;;;2.78;1.50;;;2.40;70.90;;;;;;5094571;28;20069;-79
2023/05/06 00:08:57;;;;;;;4.45;1.90;;;2.30;71.10;;;;;;5094192;28;20028;-84
2023/05/06 00:11:23;;;;;;;4.25;2.03;;;2.30;71.50;;;;;;5096280;28;20524;-79
2023/05/06 00:13:49;;;;;;;3.05;1.88;;;2.20;72.00;;;;;;5094477;28;20024;-80
2023/05/06 00:16:15;;;;;;;3.00;1.60;;;2.20;72.20;;;;;;5094850;28;20439;-79
2023/05/06 00:18:41;;;;;;;2.70;2.20;;;2.20;72.50;;;;;;5095782;28;20074;-79
2023/05/06 00:21:07;;;;;;;2.05;1.67;;;2.20;72.60;;;;;;5077036;28;20024;-78
2023/05/06 00:23:33;;;;;;;3.03;2.17;;;2.10;73.80;;;;;;5075034;28;20469;-81
2023/05/06 00:25:59;;;;;;;2.15;1.60;;;2.10;73.70;;;;;;5094345;28;20468;-79
2023/05/06 00:28:25;;;;;;;4.70;1.92;;;2.00;74.00;;;;;;5075632;28;20042;-79
2023/05/06 00:30:50;;;;;;;2.10;1.70;;;2.00;73.70;;;;;;5094005;28;20028;-79
2023/05/06 00:33:16;;;;;;;2.60;2.03;;;2.00;74.40;;;;;;5094619;28;20029;-79
2023/05/06 00:35:42;;;;;;;7.75;2.17;;;1.90;74.70;;;;;;5094368;28;20039;-80
2023/05/06 00:38:10;;;;;;;3.35;1.83;;;1.90;75.40;;;;;;5093932;28;20070;-79
2023/05/06 00:40:36;;;;;;;6.88;1.85;;;1.80;75.00;;;;;;5093992;28;20028;-79
2023/05/06 00:43:02;;;;;;;3.80;2.08;;;1.80;75.20;;;;;;5094113;28;20049;-80
2023/05/06 00:45:28;;;;;;;4.95;2.28;;;1.70;75.50;;;;;;5075787;28;20500;-79
2023/05/06 00:47:55;;;;;;;2.03;1.27;;;1.70;76.20;;;;;;5075141;28;20161;-79
2023/05/06 00:50:21;;;;;;;2.63;1.83;;;1.70;77.00;;;;;;5093567;28;20028;-80
2023/05/06 00:52:48;;;;;;;2.38;1.80;;;1.60;76.70;;;;;;5094430;28;20030;-79
2023/05/06 00:55:15;;;;;;;5.15;1.70;;;1.60;77.50;;;;;;5094035;28;20016;-79
2023/05/06 00:57:41;;;;;;;2.55;1.85;;;1.60;77.30;;;;;;5093740;28;20032;-78
2023/05/06 01:00:07;;;;;;;2.47;1.70;;;1.50;77.30;;;;;;5075863;28;20035;-81
2023/05/06 01:02:33;;;;;;;4.70;2.13;;;1.50;78.20;;;;;;5093942;28;20020;-79
2023/05/06 01:04:59;;;;;;;3.15;1.30;;;1.50;78.40;;;;;;5075415;28;20032;-79
2023/05/06 01:07:44;;;;;;;4.90;2.30;;;1.40;78.80;;;;;;5097592;28;20080;-81
2023/05/06 01:10:23;;;;;;;3.00;2.17;;;1.40;78.80;;;;;;5101687;28;20107;-80
2023/05/06 01:13:01;;;;;;;2.95;1.70;;;1.30;79.20;;;;;;5095534;28;20099;-79
2023/05/06 01:15:39;;;;;;;3.28;1.90;;;1.30;79.30;;;;;;5093878;28;20030;-79
2023/05/06 01:18:09;;;;;;;2.50;2.10;;;1.30;79.90;;;;;;5093489;28;20030;-78
2023/05/06 01:20:37;;;;;;;3.75;1.90;;;1.30;80.90;;;;;;5096583;28;20083;-78
2023/05/06 01:23:10;;;;;;;6.35;2.28;;;1.30;80.20;;;;;;5094049;28;20031;-79
2023/05/06 01:25:36;;;;;;;3.13;2.03;;;1.20;80.30;;;;;;5093538;28;20016;-78
2023/05/06 01:28:01;;;;;;;2.67;1.67;;;1.20;80.70;;;;;;5093160;28;20069;-78
2023/05/06 01:30:34;;;;;;;3.25;1.73;;;1.20;81.40;;;;;;5092955;28;20040;-78
2023/05/06 01:33:39;;;;;;;3.13;2.35;;;1.20;81.60;;;;;;5094655;28;20562;-78
2023/05/06 01:36:19;;;;;;;2.25;1.48;;;1.20;82.00;;;;;;5094645;28;20060;-79
2023/05/06 01:38:56;;;;;;;2.28;1.38;;;1.20;82.80;;;;;;5099453;28;20100;-79
2023/05/06 01:41:25;;;;;;;1.85;1.45;;;1.10;83.20;;;;;;5096781;28;20043;-79
2023/05/06 01:43:53;;;;;;;3.72;1.70;;;1.10;83.00;;;;;;5074909;28;20078;-80
2023/05/06 01:46:21;;;;;;;2.05;1.35;;;1.00;83.30;;;;;;5093197;28;20078;-79
2023/05/06 01:48:51;;;;;;;1.48;1.38;;;1.00;83.90;;;;;;5093689;28;20062;-79
2023/05/06 01:51:17;;;;;;;3.50;1.50;;;1.00;84.00;;;;;;5091848;28;20020;-79
2023/05/06 01:53:43;;;;;;;2.75;1.77;;;1.00;84.10;;;;;;5074489;28;20378;-79
2023/05/06 01:56:09;;;;;;;1.98;1.30;;;1.00;84.40;;;;;;5092505;28;20496;-78
2023/05/06 01:58:36;;;;;;;3.65;2.13;;;1.00;84.80;;;;;;5091609;28;20073;-79
2023/05/06 02:01:02;;;;;;;2.90;2.20;;;1.10;85.30;;;;;;5092976;28;20369;-79
2023/05/06 02:03:28;;;;;;;2.33;1.60;;;1.10;85.40;;;;;;5093489;28;20028;-79
2023/05/06 02:05:54;;;;;;;2.20;1.52;;;1.10;85.60;;;;;;5074297;28;20078;-80
2023/05/06 02:08:20;;;;;;;3.42;1.60;;;1.10;85.60;;;;;;5092880;28;20022;-78
2023/05/06 02:10:46;;;;;;;4.15;1.90;;;1.20;85.70;;;;;;5092033;28;20427;-79
2023/05/06 02:13:12;;;;;;;2.80;1.95;;;1.20;85.40;;;;;;5092526;28;20020;-81
2023/05/06 02:15:37;;;;;;;4.25;1.70;;;1.20;85.50;;;;;;5092645;28;20107;-79
2023/05/06 02:18:04;;;;;;;2.88;1.85;;;1.20;85.60;;;;;;5092540;28;20024;-80
2023/05/06 02:20:29;;;;;;;2.53;1.52;;;1.20;85.70;;;;;;5074153;28;20040;-81
2023/05/06 02:22:55;;;;;;;2.38;2.03;;;1.20;85.80;;;;;;5074838;28;20027;-81
2023/05/06 02:25:21;;;;;;;2.08;1.60;;;1.20;86.20;;;;;;5096153;28;20031;-79
2023/05/06 02:27:47;;;;;;;4.18;1.90;;;1.20;86.20;;;;;;5088317;28;20100;-81
2023/05/06 02:30:13;;;;;;;2.88;2.20;;;1.20;86.30;;;;;;5094477;28;20116;-80
2023/05/06 02:32:40;;;;;;;3.42;2.08;;;1.10;86.60;;;;;;5104726;28;20432;-83
2023/05/06 02:35:06;;;;;;;2.63;1.50;;;1.10;86.70;;;;;;5086474;28;20485;-80
2023/05/06 02:37:32;;;;;;;4.85;1.90;;;1.10;86.90;;;;;;5099291;28;20458;-80
2023/05/06 02:39:58;;;;;;;2.30;1.77;;;1.10;87.00;;;;;;5076749;28;20032;-82
2023/05/06 02:42:24;;;;;;;1.50;1.17;;;1.20;87.10;;;;;;5094396;28;20024;-80
2023/05/06 02:44:50;;;;;;;3.05;1.73;;;1.20;87.10;;;;;;5074760;28;20027;-81
2023/05/06 02:47:16;;;;;;;3.72;1.67;;;1.20;87.00;;;;;;5092728;28;20053;-80
2023/05/06 02:49:41;;;;;;;1.48;1.17;;;1.30;87.00;;;;;;5094473;28;20032;-80
2023/05/06 02:52:07;;;;;;;3.00;1.85;;;1.40;86.60;;;;;;5074151;28;20535;-80
2023/05/06 02:54:33;;;;;;;2.42;1.70;;;1.50;86.30;;;;;;5105826;28;20028;-81
2023/05/06 02:57:00;;;;;;;4.60;2.15;;;1.60;86.00;;;;;;5092564;28;20087;-79
2023/05/06 02:59:25;;;;;;;2.13;1.17;;;1.70;85.50;;;;;;5095028;28;20047;-80
2023/05/06 03:01:51;;;;;;;2.25;1.80;;;1.80;85.30;;;;;;5094754;28;20031;-79
2023/05/06 03:04:17;;;;;;;2.70;1.38;;;2.00;85.50;;;;;;5091925;28;20505;-79
2023/05/06 03:06:43;;;;;;;2.20;1.55;;;2.30;84.40;;;;;;5092922;28;20023;-78
2023/05/06 03:09:09;;;;;;;2.92;1.75;;;2.40;83.70;;;;;;5075086;28;20035;-80
2023/05/06 03:11:34;;;;;;;2.28;1.67;;;2.60;83.00;;;;;;5084798;28;20020;-79
2023/05/06 03:14:00;;;;;;;3.85;1.60;;;2.70;81.80;;;;;;5084377;28;20484;-78
2023/05/06 03:16:27;;;;;;;3.22;1.70;;;2.80;81.00;;;;;;5100966;28;20020;-79
2023/05/06 03:18:52;;;;;;;2.90;2.08;;;2.80;80.60;;;;;;5098237;28;20051;-79
2023/05/06 03:21:18;;;;;;;1.75;1.38;;;2.70;80.00;;;;;;5096788;28;20028;-79
2023/05/06 03:23:44;;;;;;;2.00;1.45;;;2.60;79.70;;;;;;5098131;28;20024;-78
2023/05/06 03:26:10;;;;;;;5.82;1.80;;;2.40;79.80;;;;;;5096608;28;20036;-78
2023/05/06 03:28:36;;;;;;;1.95;1.50;;;2.40;80.30;;;;;;5095528;28;20023;-80
2023/05/06 03:31:02;;;;;;;3.90;1.40;;;2.50;80.10;;;;;;5095853;28;20031;-79
2023/05/06 03:33:28;;;;;;;3.40;1.40;;;2.50;79.80;;;;;;5108764;28;20016;-79
2023/05/06 03:35:54;;;;;;;3.10;1.80;;;2.50;78.90;;;;;;5098801;28;20051;-78
2023/05/06 03:38:20;;;;;;;2.60;1.70;;;2.40;78.80;;;;;;5103017;28;20089;-79
2023/05/06 03:40:46;;;;;;;3.58;1.38;;;2.30;79.20;;;;;;5096524;28;20036;-79
2023/05/06 03:43:11;;;;;;;2.90;1.98;;;2.30;79.50;;;;;;5080194;28;20092;-79
2023/05/06 03:45:37;;;;;;;2.38;1.30;;;2.30;79.30;;;;;;5098254;28;20023;-79
2023/05/06 03:48:03;;;;;;;3.13;1.45;;;2.30;79.10;;;;;;5099985;28;20024;-78
2023/05/06 03:50:29;;;;;;;1.17;0.80;;;2.40;79.20;;;;;;5108737;28;20111;-80
2023/05/06 03:52:55;;;;;;;2.55;1.45;;;2.50;78.50;;;;;;5094743;28;20021;-80
2023/05/06 03:55:21;;;;;;;2.65;1.90;;;2.60;78.20;;;;;;5094648;28;20031;-79
2023/05/06 03:57:47;;;;;;;2.47;1.50;;;2.80;77.80;;;;;;5095804;28;20027;-79
2023/05/06 04:00:13;;;;;;;1.60;1.40;;;3.00;76.60;;;;;;5094130;28;20048;-81
2023/05/06 04:02:41;;;;;;;1.35;1.25;;;3.00;76.20;;;;;;5094835;28;20034;-79
2023/05/06 04:05:07;;;;;;;3.17;1.70;;;3.00;75.90;;;;;;5094345;28;20024;-79
2023/05/06 04:07:33;;;;;;;9.20;2.03;;;3.20;76.70;;;;;;5094500;28;20427;-80
2023/05/06 04:09:59;;;;;;;8.27;4.57;;;3.30;75.70;;;;;;5076847;28;20024;-79
2023/05/06 04:12:24;;;;;;;8.23;4.05;;;3.40;75.40;;;;;;5097328;28;20027;-80
2023/05/06 04:14:50;;;;;;;5.15;1.33;;;3.50;75.10;;;;;;5094550;28;20089;-79
2023/05/06 04:17:16;;;;;;;2.03;1.60;;;3.50;74.00;;;;;;5093869;28;20481;-80
2023/05/06 04:19:42;;;;;;;2.00;1.40;;;3.40;73.80;;;;;;5094180;28;20508;-81
2023/05/06 04:22:08;;;;;;;1.83;1.50;;;3.20;74.00;;;;;;5093510;28;20038;-81
2023/05/06 04:24:34;;;;;;;2.53;1.52;;;3.20;74.10;;;;;;5095304;28;20027;-79
2023/05/06 04:27:01;;;;;;;2.33;1.42;;;3.20;74.60;;;;;;5096020;28;20024;-80
2023/05/06 04:29:27;;;;;;;2.55;1.38;;;3.30;74.30;;;;;;5095089;28;20116;-79
2023/05/06 04:31:53;;;;;;;3.08;1.30;;;3.50;73.70;;;;;;5093971;28;20094;-80
2023/05/06 04:34:19;;;;;;;1.80;1.30;;;3.50;72.90;;;;;;5093465;28;20076;-80
2023/05/06 04:36:46;;;;;;;3.53;1.50;;;3.50;72.40;;;;;;5094277;28;20043;-79
2023/05/06 04:39:13;;;;;;;2.13;1.52;;;3.40;73.20;;;;;;5093947;28;20024;-80
2023/05/06 04:41:39;;;;;;;1.55;1.20;;;3.30;73.20;;;;;;5093751;28;20042;-81
2023/05/06 04:44:05;;;;;;;2.63;1.50;;;3.30;73.00;;;;;;5093993;28;20016;-81
2023/05/06 04:46:32;;;;;;;4.03;1.30;;;3.20;73.10;;;;;;5093864;28;20035;-79
2023/05/06 04:48:58;;;;;;;2.30;1.80;;;3.10;73.90;;;;;;5096090;28;20024;-80
2023/05/06 04:51:25;;;;;;;2.47;1.48;;;3.10;73.70;;;;;;5098755;28;20034;-81
2023/05/06 04:53:51;;;;;;;2.13;1.50;;;3.10;73.50;;;;;;5093898;28;20017;-80
2023/05/06 04:56:17;;;;;;;2.83;1.50;;;3.20;73.50;;;;;;5094197;28;20028;-80
2023/05/06 04:58:43;;;;;;;3.60;1.40;;;3.20;73.10;;;;;;5093692;28;20493;-80
2023/05/06 05:01:10;;;;;;;3.83;1.60;;;3.30;72.90;;;;;;5093847;28;20043;-79
2023/05/06 05:03:36;;;;;;;1.60;1.47;;;3.50;73.10;;;;;;5094540;28;20012;-80
2023/05/06 05:06:02;;;;;;;1.95;1.10;;;3.80;72.80;;;;;;5103036;28;20024;-82
2023/05/06 05:08:28;;;;;;;3.35;1.67;;;4.10;71.30;;;;;;5095814;28;20024;-80
2023/05/06 05:10:53;;;;;;;1.55;1.30;;;4.20;70.70;;;;;;5096549;28;20542;-79
2023/05/06 05:13:20;;;;;;;6.47;2.83;;;4.50;70.40;;;;;;5094031;28;20465;-80
2023/05/06 05:15:46;;;;;;;2.78;1.30;;;5.00;70.40;;;;;;5093414;28;20020;-78
2023/05/06 05:18:12;;;;;;;2.40;1.20;;;6.00;66.70;;;;;;5075019;28;20867;-79
2023/05/06 05:20:38;;;;;;;2.13;1.08;;;6.10;64.00;;;;;;5093047;28;20043;-80
2023/05/06 05:23:03;;;;;;;2.53;1.73;;;6.00;63.80;;;;;;5092517;28;20470;-79
2023/05/06 05:25:29;;;;;;;3.10;1.95;;;6.10;62.90;;;;;;5092873;28;20389;-80
2023/05/06 05:27:55;;;;;;;2.83;1.15;;;6.30;63.70;;;;;;5074898;28;20027;-79
2023/05/06 05:30:21;;;;;;;1.90;1.17;;;7.50;63.00;;;;;;5092856;28;20028;-79
2023/05/06 05:32:47;;;;;;;1.52;1.20;;;8.10;58.70;;;;;;5093101;28;20020;-80
2023/05/06 05:35:13;;;;;;;4.10;1.42;;;8.80;58.30;;;;;;5075039;28;20540;-79
2023/05/06 05:37:39;;;;;;;1.50;1.10;;;9.80;55.30;;;;;;5101530;28;20051;-80
2023/05/06 05:40:05;;;;;;;1.83;1.13;;;10.00;53.10;;;;;;5105702;28;20107;-80
2023/05/06 05:42:32;;;;;;;1.33;1.23;;;9.70;53.20;;;;;;5099664;28;20024;-79
2023/05/06 05:45:01;;;;;;;2.00;1.08;;;9.10;53.70;;;;;;5099787;28;20020;-80
2023/05/06 05:47:27;;;;;;;1.83;1.40;;;9.60;54.80;;;;;;5079363;28;20148;-78
2023/05/06 05:49:53;;;;;;;4.22;1.45;;;9.70;52.70;;;;;;5099748;28;20448;-78
2023/05/06 05:52:19;;;;;;;1.65;0.93;;;9.60;52.50;;;;;;5096547;28;20089;-81
2023/05/06 05:54:44;;;;;;;2.58;1.25;;;9.00;52.90;;;;;;5095789;28;20047;-80
2023/05/06 05:57:10;;;;;;;1.55;1.20;;;8.70;54.20;;;;;;5096285;28;20028;-80
2023/05/06 05:59:36;;;;;;;3.63;1.30;;;9.30;54.90;;;;;;5096027;28;20528;-78
2023/05/06 06:02:04;;;;;;;2.83;1.75;;;10.50;52.40;;;;;;5107650;28;20047;-80
2023/05/06 06:04:29;;;;;;;2.50;1.13;;;10.30;51.00;;;;;;5107407;28;20058;-80
2023/05/06 06:07:00;;;;;;;1.45;1.00;;;9.80;51.10;;;;;;5105430;28;20051;-81
2023/05/06 06:09:26;;;;;;;3.63;1.27;;;9.40;52.00;;;;;;5108302;28;20023;-79
2023/05/06 06:11:53;;;;;;;3.22;1.25;;;9.00;52.40;;;;;;5099005;28;20502;-78
2023/05/06 06:14:19;;;;;;;6.13;1.38;;;8.40;53.40;;;;;;5096219;28;20034;-79
2023/05/06 06:16:45;;;;;;;3.50;1.10;;;7.80;54.40;;;;;;5083399;28;20035;-80
2023/05/06 06:19:13;;;;;;;4.43;1.10;;;7.70;56.00;;;;;;5113311;28;20019;-80
2023/05/06 06:21:38;;;;;;;1.58;0.93;;;8.50;54.60;;;;;;5081769;28;20044;-81
2023/05/06 06:24:04;;;;;;;2.75;1.33;;;8.80;53.70;;;;;;5101436;28;20020;-79
2023/05/06 06:26:30;;;;;;;1.63;1.02;;;8.70;53.40;;;;;;5095339;28;20016;-80
2023/05/06 06:28:56;;;;;;;1.25;0.90;;;8.40;53.80;;;;;;5099623;28;20016;-81
2023/05/06 06:31:22;;;;;;;1.45;1.35;;;8.10;54.70;;;;;;5095794;28;20028;-79
2023/05/06 06:33:48;;;;;;;6.72;1.27;;;8.90;53.60;;;;;;5092039;28;20456;-80
2023/05/06 06:36:14;;;;;;;3.25;1.88;;;9.10;53.10;;;;;;5092383;28;20028;-81
2023/05/06 06:38:40;;;;;;;2.92;1.17;;;9.10;52.30;;;;;;5092552;28;20361;-79
2023/05/06 06:41:06;;;;;;;2.88;1.58;;;8.70;52.70;;;;;;5091807;28;20068;-79
2023/05/06 06:43:32;;;;;;;4.05;1.30;;;8.30;53.50;;;;;;5091684;28;20389;-80
2023/05/06 06:45:58;;;;;;;2.13;1.33;;;7.70;54.50;;;;;;5095713;28;20040;-79
2023/05/06 06:48:24;;;;;;;1.48;1.38;;;7.20;55.50;;;;;;5100526;28;20020;-80
2023/05/06 06:50:50;;;;;;;2.45;1.55;;;6.70;56.80;;;;;;5106236;28;20028;-79
2023/05/06 06:53:16;;;;;;;1.27;1.10;;;6.30;58.10;;;;;;5096520;28;20365;-79
2023/05/06 06:55:43;;;;;;;1.65;1.30;;;6.10;57.90;;;;;;5108481;28;20028;-80
2023/05/06 06:58:09;;;;;;;1.17;0.90;;;6.10;58.10;;;;;;5107592;28;20027;-80
2023/05/06 07:00:35;;;;;;;2.55;1.35;;;6.40;58.10;;;;;;5096708;28;20284;-81
2023/05/06 07:03:01;;;;;;;1.95;1.40;;;6.90;58.00;;;;;;5096428;28;20024;-81
2023/05/06 07:05:27;;;;;;;3.80;1.63;;;8.90;55.90;;;;;;5101289;28;20034;-79
2023/05/06 07:07:54;;;;;;;2.20;1.60;;;10.00;51.60;;;;;;5088109;28;20028;-80
2023/05/06 07:10:20;;;;;;;2.13;1.40;;;9.70;50.50;;;;;;5099338;28;20376;-80
2023/05/06 07:12:46;;;;;;;3.55;2.28;;;9.50;51.30;;;;;;5089578;28;20053;-80
2023/05/06 07:15:12;;;;;;;3.15;1.65;;;9.20;52.00;;;;;;5101350;28;20107;-80
2023/05/06 07:17:38;;;;;;;1.00;0.90;;;8.90;52.10;;;;;;5083782;28;20398;-78
2023/05/06 07:20:05;;;;;;;4.57;1.42;;;8.10;51.50;;;;;;5103887;28;20020;-80
2023/05/06 07:22:31;;;;;;;1.20;1.10;;;7.40;52.90;;;;;;5101043;28;20031;-79
2023/05/06 07:24:56;;;;;;;1.90;1.10;;;6.80;54.00;;;;;;5099159;28;20024;-79
2023/05/06 07:27:23;;;;;;;1.63;0.93;;;6.50;54.80;;;;;;5081319;28;20039;-78
2023/05/06 07:29:49;;;;;;;3.08;1.42;;;6.40;55.10;;;;;;5095629;28;20074;-79
2023/05/06 07:32:15;;;;;;;1.85;1.00;;;6.30;55.50;;;;;;5095231;28;20028;-80
2023/05/06 07:34:41;;;;;;;2.28;1.30;;;6.70;56.10;;;;;;5095023;28;20012;-79
2023/05/06 07:37:07;;;;;;;1.90;1.20;;;7.50;54.00;;;;;;5095962;28;20083;-80
2023/05/06 07:39:33;;;;;;;4.45;1.30;;;7.80;52.70;;;;;;5099143;28;20068;-80
2023/05/06 07:42:00;;;;;;;2.50;1.27;;;7.90;52.70;;;;;;5095533;28;20031;-81
2023/05/06 07:44:26;;;;;;;2.45;1.50;;;7.70;53.00;;;;;;5077623;28;20043;-80
2023/05/06 07:46:52;;;;;;;2.65;1.50;;;7.50;53.40;;;;;;5076529;28;20024;-81
2023/05/06 07:49:18;;;;;;;1.92;1.20;;;7.40;53.60;;;;;;5077139;28;20035;-80
2023/05/06 07:51:44;;;;;;;1.23;1.10;;;7.10;53.40;;;;;;5101957;28;20011;-81
2023/05/06 07:54:10;;;;;;;2.33;1.27;;;6.80;54.20;;;;;;5099940;28;20504;-81
2023/05/06 07:56:36;;;;;;;1.42;1.10;;;6.90;54.50;;;;;;5101442;28;20111;-80
2023/05/06 07:59:02;;;;;;;1.48;1.00;;;7.00;53.90;;;;;;5101031;28;20156;-81
2023/05/06 08:01:30;;;;;;;5.70;2.78;;;7.20;53.80;;;;;;5101387;28;20225;-79
2023/05/06 08:03:56;;;;;;;2.28;1.33;;;7.50;53.60;;;;;;5105600;28;20020;-80
2023/05/06 08:06:22;;;;;;;1.52;1.27;;;8.40;52.60;;;;;;5110710;28;20076;-79
2023/05/06 08:08:48;;;;;;;1.95;1.48;;;8.50;50.50;;;;;;5105096;28;20110;-78
2023/05/06 08:11:14;;;;;;;3.15;1.58;;;8.40;51.60;;;;;;5098888;28;20031;-79
2023/05/06 08:13:40;;;;;;;2.38;1.15;;;8.90;51.70;;;;;;5094770;28;20073;-80
2023/05/06 08:16:07;;;;;;;3.38;1.17;;;9.50;50.10;;;;;;5104678;28;20016;-81
2023/05/06 08:18:33;;;;;;;1.40;1.30;;;9.30;48.50;;;;;;5085294;28;20019;-79
2023/05/06 08:20:58;;;;;;;2.80;1.30;;;8.60;49.70;;;;;;5096388;28;20476;-81
2023/05/06 08:23:24;;;;;;;1.45;1.08;;;8.30;50.50;;;;;;5103751;28;20381;-80
2023/05/06 08:25:50;;;;;;;2.33;1.30;;;8.20;50.50;;;;;;5100000;28;20496;-80
2023/05/06 08:28:16;;;;;;;2.35;1.20;;;8.00;51.30;;;;;;5105015;28;20020;-80
2023/05/06 08:30:44;;;;;;;1.90;1.30;;;9.00;51.80;;;;;;5097614;28;20126;-79
2023/05/06 08:33:10;;;;;;;3.88;1.60;;;10.60;48.90;;;;;;5076550;28;20073;-77
2023/05/06 08:35:36;;;;;;;3.30;1.42;;;10.90;47.00;;;;;;5095642;28;20024;-79
2023/05/06 08:38:02;;;;;;;3.53;1.33;;;11.30;47.30;;;;;;5096626;28;20023;-81
2023/05/06 08:40:32;;;;;;;3.40;1.25;;;13.00;45.00;;;;;;5105726;28;20032;-81
2023/05/06 08:42:59;;;;;;;5.70;1.52;;;15.00;41.20;;;;;;5099229;28;20020;-80
2023/05/06 08:45:26;;;;;;;3.00;1.70;;;15.80;39.00;;;;;;5106007;28;20046;-81
2023/05/06 08:47:52;;;;;;;2.45;1.25;;;15.40;37.60;;;;;;5100345;28;20031;-82
2023/05/06 08:50:18;;;;;;;1.95;1.20;;;14.30;38.70;;;;;;5105399;28;20030;-77
2023/05/06 08:52:44;;;;;;;6.22;1.75;;;13.60;39.70;;;;;;5078615;28;20025;-78
2023/05/06 08:55:10;;;;;;;3.90;1.10;;;12.70;40.50;;;;;;5079176;28;20504;-78
2023/05/06 08:57:37;;;;;;;2.60;1.13;;;11.50;41.80;;;;;;5093609;28;20038;-79
2023/05/06 09:00:03;;;;;;;6.13;2.08;;;10.50;43.20;;;;;;5096187;28;20131;-78
2023/05/06 09:02:29;;;;;;;3.70;1.42;;;10.10;44.80;;;;;;5104201;28;20366;-77
2023/05/06 09:04:55;;;;;;;3.67;1.90;;;11.90;45.00;;;;;;5096254;28;20027;-78
2023/05/06 09:07:22;;;;;;;3.58;1.50;;;14.90;41.70;;;;;;5076297;28;20111;-80
2023/05/06 09:09:48;;;;;;;4.03;1.80;;;15.80;37.90;;;;;;5107828;28;20023;-80
2023/05/06 09:12:15;;;;;;;4.82;1.70;;;15.90;37.70;;;;;;5097635;28;20481;-79
2023/05/06 09:14:41;;;;;;;3.72;1.77;;;15.00;37.50;;;;;;5094869;28;20020;-79
2023/05/06 09:17:25;;;;;;;2.88;1.15;;;14.70;38.00;;;;;;5097889;28;20024;-81
2023/05/06 09:19:52;;;;;;;3.58;1.40;;;13.90;38.00;;;;;;5101194;28;20016;-78
2023/05/06 09:22:21;;;;;;;1.20;0.90;;;13.10;39.00;;;;;;5098287;28;20077;-81
2023/05/06 09:24:55;;;;;;;6.72;1.60;;;13.20;39.10;;;;;;5112302;28;20077;-79
2023/05/06 09:27:22;;;;;;;2.60;1.25;;;13.90;38.00;;;;;;5095696;28;20016;-81
2023/05/06 09:30:06;;;;;;;2.88;1.17;;;13.30;37.30;;;;;;5102848;28;20365;-79
2023/05/06 09:32:33;;;;;;;4.13;1.40;;;11.90;38.80;;;;;;5097718;28;20047;-78
2023/05/06 09:34:59;;;;;;;6.20;1.88;;;10.70;41.10;;;;;;5075204;28;20065;-81
2023/05/06 09:37:26;;;;;;;3.75;1.58;;;10.10;42.80;;;;;;5074725;28;20028;-81
2023/05/06 09:39:57;;;;;;;5.82;2.85;;;9.60;43.50;;;;;;5094487;28;20433;-79
2023/05/06 09:42:24;;;;;;;1.52;1.20;;;9.30;44.30;;;;;;5102901;28;20577;-82
2023/05/06 09:44:58;;;;;;;4.53;1.63;;;9.00;44.20;;;;;;5106335;28;20008;-84
2023/05/06 09:47:25;;;;;;;4.15;1.30;;;9.00;44.20;;;;;;5095212;28;20032;-86
2023/05/06 09:49:58;;;;;;;1.45;0.90;;;10.00;43.40;;;;;;5083185;28;20480;-85
2023/05/06 09:52:29;;;;;;;2.63;1.45;;;10.80;41.60;;;;;;5086377;28;20404;-84
2023/05/06 09:55:00;;;;;;;3.38;1.35;;;10.90;40.70;;;;;;5101463;28;20026;-85
2023/05/06 09:57:29;;;;;;;2.10;1.15;;;10.70;41.10;;;;;;5107980;28;20034;-85
2023/05/06 09:59:57;;;;;;;3.42;1.30;;;10.80;41.00;;;;;;5080534;28;20047;-84
2023/05/06 10:02:23;;;;;;;2.78;1.05;;;10.40;40.40;;;;;;5084479;28;20095;-83
2023/05/06 10:04:49;;;;;;;1.90;1.10;;;10.10;40.60;;;;;;5102568;28;20032;-83
2023/05/06 10:07:18;;;;;;;3.58;1.50;;;9.70;41.00;;;;;;5086722;28;20027;-84
2023/05/06 10:09:45;;;;;;;7.20;4.07;;;8.90;42.10;;;;;;5103330;28;20058;-87
2023/05/06 10:12:13;;;;;;;4.03;1.67;;;8.50;43.60;;;;;;5097250;28;20024;-87
2023/05/06 10:14:39;;;;;;;4.70;2.00;;;9.30;43.70;;;;;;5106280;28;20023;-83
2023/05/06 10:17:10;;;;;;;2.22;1.55;;;10.60;40.90;;;;;;5106784;28;20028;-86
2023/05/06 10:19:40;;;;;;;3.97;1.95;;;10.60;39.90;;;;;;5083222;28;20024;-83
2023/05/06 10:22:25;;;;;;;1.50;1.33;;;10.00;39.90;;;;;;5083620;28;20378;-83
2023/05/06 10:24:59;;;;;;;2.70;1.80;;;9.60;40.80;;;;;;5105166;28;20438;-84
2023/05/06 10:27:25;;;;;;;3.10;1.65;;;9.20;41.40;;;;;;5100674;28;20023;-82
2023/05/06 10:29:59;;;;;;;3.37;1.40;;;8.90;41.70;;;;;;5094408;28;20111;-84
2023/05/06 10:32:30;;;;;;;6.68;1.20;;;8.70;41.90;;;;;;5096533;28;20318;-83
2023/05/06 10:35:04;;;;;;;4.18;1.52;;;8.50;42.30;;;;;;5091999;28;20111;-83
2023/05/06 10:37:32;;;;;;;1.98;1.00;;;8.40;42.10;;;;;;5104674;28;20016;-83
2023/05/06 10:39:59;;;;;;;1.70;1.20;;;8.40;41.60;;;;;;5127770;28;20020;-84
2023/05/06 10:42:34;;;;;;;3.92;1.48;;;8.60;41.80;;;;;;5116746;28;20024;-84
2023/05/06 10:45:07;;;;;;;4.72;0.98;;;8.80;41.60;;;;;;5114121;28;20019;-83
2023/05/06 10:47:51;;;;;;;2.40;1.30;;;8.90;42.00;;;;;;5098949;28;20095;-83
2023/05/06 10:50:25;;;;;;;1.90;1.25;;;8.90;41.80;;;;;;5110075;28;20028;-84
2023/05/06 10:52:56;;;;;;;4.28;1.73;;;8.80;42.40;;;;;;5106958;28;20016;-84
2023/05/06 10:55:31;;;;;;;1.58;1.40;;;8.80;42.40;;;;;;5100342;28;20116;-84
2023/05/06 10:58:02;;;;;;;2.33;1.02;;;8.80;41.30;;;;;;5102517;28;20028;-85
2023/05/06 11:00:33;;;;;;;1.70;1.40;;;8.70;41.10;;;;;;5089862;28;20134;-82
2023/05/06 11:03:10;;;;;;;2.95;1.60;;;8.70;40.80;;;;;;5107838;28;20054;-85
2023/05/06 11:05:50;;;;;;;4.82;1.60;;;8.70;40.30;;;;;;5111140;28;20015;-84
2023/05/06 11:08:25;;;;;;;2.55;1.42;;;8.70;40.30;;;;;;5112082;28;20059;-82
2023/05/06 11:10:52;;;;;;;4.68;2.03;;;8.60;41.10;;;;;;5081400;28;20357;-84
2023/05/06 11:13:18;;;;;;;4.77;1.20;;;8.40;41.30;;;;;;5081618;28;20031;-84
2023/05/06 11:15:45;;;;;;;2.22;1.33;;;8.30;41.80;;;;;;5101718;28;20016;-84
2023/05/06 11:18:37;;;;;;;;;;;8.40;42.30;;;;;;5095166;28;20043;-83
2023/05/06 11:21:09;;;;;;;2.47;1.02;;;8.40;42.30;;;;;;5092831;28;19920;-85
2023/05/06 11:23:41;;;;;;;1.40;1.15;;;8.40;41.70;;;;;;5094280;28;20024;-83
2023/05/06 11:26:11;;;;;;;3.35;1.50;;;8.50;40.50;;;;;;5107678;28;20075;-82
2023/05/06 11:28:38;;;;;;;2.17;1.30;;;8.40;41.30;;;;;;5119701;28;20023;-84
2023/05/06 11:31:04;;;;;;;3.33;1.40;;;8.30;41.40;;;;;;5106224;28;20105;-82
2023/05/06 11:33:35;;;;;;;3.30;1.30;;;8.40;41.40;;;;;;5110128;28;20058;-82
2023/05/06 11:36:04;;;;;;;7.55;1.40;;;8.40;41.30;;;;;;5128520;28;20015;-86
2023/05/06 11:38:46;;;;;;;4.45;1.77;;;8.60;42.20;;;;;;5122182;28;20024;-83
2023/05/06 11:41:13;;;;;;;3.00;1.73;;;8.70;41.30;;;;;;5090361;28;20096;-86
2023/05/06 11:43:39;;;;;;;3.87;2.00;;;8.80;41.80;;;;;;5115741;28;20027;-85
2023/05/06 11:46:05;;;;;;;3.42;1.50;;;8.80;41.50;;;;;;5117232;28;20249;-86
2023/05/06 11:48:31;;;;;;;2.22;1.27;;;8.80;40.60;;;;;;5096553;28;20077;-86
2023/05/06 11:50:57;;;;;;;3.95;1.10;;;8.70;40.60;;;;;;5076935;28;20036;-85
2023/05/06 11:53:23;;;;;;;1.65;1.20;;;8.60;40.50;;;;;;5113331;28;20390;-83
2023/05/06 11:55:52;;;;;;;3.17;1.38;;;8.60;40.40;;;;;;5087596;28;20115;-83
2023/05/06 11:58:24;;;;;;;2.85;1.33;;;8.70;41.70;;;;;;5099771;28;20028;-81
2023/05/06 12:00:53;;;;;;;3.42;1.75;;;8.90;41.10;;;;;;5086284;28;20101;-82
2023/05/06 12:03:20;;;;;;;4.78;1.52;;;9.20;41.60;;;;;;5083153;28;20030;-84
2023/05/06 12:05:47;;;;;;;7.35;1.98;;;9.50;40.80;;;;;;5090846;28;20081;-85
2023/05/06 12:08:16;;;;;;;2.58;1.35;;;9.60;39.80;;;;;;5080153;28;20542;-84
2023/05/06 12:10:42;;;;;;;1.75;1.20;;;9.50;39.60;;;;;;5102128;28;20024;-83
2023/05/06 12:13:08;;;;;;;4.38;1.27;;;9.40;40.20;;;;;;5116477;28;20446;-81
2023/05/06 12:15:34;;;;;;;2.85;1.35;;;9.40;38.90;;;;;;5095792;28;20012;-83
2023/05/06 12:18:03;;;;;;;4.07;1.48;;;9.40;39.40;;;;;;5095836;28;20020;-86
2023/05/06 12:20:30;;;;;;;2.97;1.10;;;9.50;39.40;;;;;;5114407;28;20030;-80
2023/05/06 12:23:15;;;;;;;2.95;1.70;;;9.50;39.00;;;;;;5105191;28;20024;-83
2023/05/06 12:25:45;;;;;;;3.60;1.60;;;9.50;40.10;;;;;;5089244;28;20092;-82
2023/05/06 12:28:14;;;;;;;4.22;2.65;;;9.50;40.40;;;;;;5107775;28;20039;-83
2023/05/06 12:30:41;;;;;;;3.40;1.35;;;9.60;40.50;;;;;;5118366;28;20141;-83
2023/05/06 12:33:08;;;;;;;5.80;2.20;;;9.50;39.80;;;;;;5089286;28;20019;-84
2023/05/06 12:35:34;;;;;;;3.97;1.85;;;9.40;40.30;;;;;;5097358;28;20031;-84
2023/05/06 12:38:12;;;;;;;3.70;1.48;;;9.30;41.00;;;;;;5094781;28;20038;-83
2023/05/06 12:40:38;;;;;;;4.45;1.95;;;8.90;41.70;;;;;;5103301;28;20652;-86
2023/05/06 12:43:05;;;;;;;2.80;1.50;;;8.50;42.50;;;;;;5105676;28;20050;-85
2023/05/06 12:45:33;;;;;;;2.97;1.50;;;8.20;41.80;;;;;;5123865;28;20043;-86
2023/05/06 12:48:01;;;;;;;2.35;1.58;;;7.80;41.90;;;;;;5088942;28;20039;-85
2023/05/06 12:50:39;;;;;;;;;;;7.60;42.10;;;;;;5095069;28;20077;-85
2023/05/06 12:53:07;;;;;;;3.53;1.27;;;7.50;41.90;;;;;;5109660;28;20280;-84
2023/05/06 12:55:35;;;;;;;2.92;1.17;;;7.30;42.10;;;;;;5096024;28;20023;-84
2023/05/06 12:58:01;;;;;;;2.53;1.52;;;7.20;42.30;;;;;;5100109;28;20369;-86